Airfield :
LOGIN :

Register | Disclaimer

   EN    FR    IT 

 










Legend :    VFR   Marginal VFR   IFR   Intensive IFR   Very Intensive IFR
Visi :
Ceiling :
>= 8 km
>= 3000ft
5 to 8 km
1000 to 3000 ft
1500m to 5 km
500 to 1000 ft
800 to 1500m
200 to 500 ft
< 800m
< 200 ft
Symbols :   Thunderstorms  Fog  Heavy snow  Heavy precipitations  Wind > 20 kt
SIGMETs :     Misc.  Thunderstorms  Icing  Turbulence  Mountain Waves  Volcanic Ashes







- Airport Elevation : 124 ft
- IATA code : RNS
- Download approach charts


LFRN - Rennes

CURRENT METAR :
  • 240000Z AUTO 22018KT 190V250 9999 -DZ OVC018/// ///TCU 15/13 Q1006 TEMPO 3000 RA BKN008 BKN012CB BECMG 21020G35KT

EXPIRED METARs :
  • 232330Z AUTO 21018G30KT 180V260 9999 BKN020/// OVC027/// ///CB 15/12 Q1005 TEMPO 3000 RA BKN007 BKN012CB
  • 232300Z AUTO 21018KT 9999 -RADZ BKN015/// BKN021/// BKN028/// ///TCU 14/13 Q1006 TEMPO 3000 RA BKN007 BKN012CB BECMG 22022G37KT
  • 232230Z AUTO 19015KT 9999 OVC014 14/12 Q1006 TEMPO 3000 RA BKN007 BKN012CB BECMG 22022G37KT
  • 232200Z AUTO 20011KT 9999 OVC011 13/12 Q1006 TEMPO 3000 RA BKN007 BKN012CB BECMG 22022G37KT
  • 232130Z AUTO 17009KT 9999 BKN010 OVC014 13/12 Q1007 TEMPO 3000 RA BKN007 BKN012CB BECMG 22022G37KT

TAF AMD TAF LFRN
Valid from the 24 at 00:00 until the 25 at 00:00 UTC


232357Z 2400/2424 21020G35KT 9999 OVC020
TEMPO 2400/2402 3000 RA BKN008 BKN012CB
TEMPO 2402/2407 BKN010
PROB30
TEMPO 2402/2407 5000 SHRA
BECMG 2403/2405 30010KT
BECMG 2409/2412 24006KT
TEMPO 2414/2418 5000 SHRA
BECMG 2422/2424 32010KT
ATIS : +33 2 99 67 72 50
No reported NOTAMs for that airfield.



MET'MAP, your aeronautical weather chart ! - Copyright ORBIFLY December 2007 - Disclaimer

ORBIFLY MET'MAP TEAM :

Programming & Development : Alexandra Zaïnal
Concept & Development : Baudouin d'Aumeries
Co-Development & Prog : Marc-Olivier Méhu
Technical & hardware support : Manuel Goepfert

Contact : metmap@orbifly.com




SOURCES & CREDITS :

   NOAA